Архив погоды в Гусь-Хрустальный

Метеограмма Гусь-Хрустальный
Пятница, 22 Июня
Время местн. Темп Ветер Видим Явления Облачность нижн/средн/верх Атм. давл. Влжн Точка росы ВНГО R Сост. почвы Tg s
Напр Скр Прв ур.ст ур.м изм
21:00 +22.7° В,Ю-В 1 - 20 км - переменная облачность 746 758 -0.3 54% +12.9° более 2.5 км - - - -
18:00 +28.7° Ю,Ю-З 3 - 20 км - переменная облачность 746 758 -0.5 31% +9.7° более 2.5 км 0 - - -
15:00 +28.2° Ю 3 - 20 км - переменная облачность 747 758 -1.2 32% +9.8° 1 км - - - -
12:00 +26.1° Ю 2 - 20 км - переменная облачность 748 760 -0.4 40% +11.3° 600 м - - - -
09:00 +23° Ю-В 1 - 20 км - переменная облачность 748 760 -0.2 53% +13° более 2.5 км - - - -
06:00 +14.6° штиль 0 - 20 км - ясно 749 761 +0.5 83% +11.7° более 2.5 км - Влажная (без луж) - -
03:00 +10.1° штиль 0 - 20 км - ясно 748 760 +0.5 93% +9.1° более 2.5 км - - - -
00:00 +12.6° штиль 0 - 20 км - ясно 748 760 +0.6 91% +11.2° более 2.5 км - - - -
Четверг, 21 Июня
Время местн. Темп Ветер Видим Явления Облачность нижн/средн/верх Атм. давл. Влжн Точка росы ВНГО R Сост. почвы Tg s
Напр Скр Прв ур.ст ур.м изм
21:00 +18.7° З,С-З 1 - 20 км - переменная облачность 747 759 +0.7 60% +10.8° более 2.5 км - - - -
18:00 +22° З,С-З 3 - 20 км - переменная облачность 746 758 +0.2 43% +9° 600 м - - - -
15:00 +20.1° З,С-З 4 - 20 км - преимущественно облачно 746 758 +0.2 45% +7.7° 600 м - - - -
12:00 +21.4° З 4 - 20 км - облачно с прояснениями 746 758 -0.5 35% +5.4° 600 м - - - -
09:00 +18.9° З 4 - 20 км - облачно с прояснениями 747 759 0 42% +5.7° 600 м - - - -
06:00 +14.3° З 2 - 20 км - ясно 747 759 +0.5 61% +7° более 2.5 км - Влажная (без луж) - -
03:00 +11.6° З 1 - 20 км - переменная облачность 746 758 +0.4 68% +5.8° более 2.5 км - - - -
00:00 +12° штиль 0 - 20 км - облачно с прояснениями 746 758 +0.9 69% +6.4° 600 м - - - -
Среда, 20 Июня
Время местн. Темп Ветер Видим Явления Облачность нижн/средн/верх Атм. давл. Влжн Точка росы ВНГО R Сост. почвы Tg s
Напр Скр Прв ур.ст ур.м изм
21:00 +18.1° З,С-З 4 14 20 км небо без изменений {ливневые осадки} преимущественно облачно 745 757 -0.2 43% +5.3° 600 м - - - -
18:00 +21.9° З 3 11 20 км - переменная облачность 744 756 -0.2 28% +2.6° 600 м - - - -
15:00 +21.5° З 4 13 20 км - переменная облачность 744 756 -0.2 30% +3.3° 600 м - - - -
12:00 +20.3° З,С-З 4 13 20 км - переменная облачность 745 757 +0.2 30% +2.4° 600 м - - - -
09:00 +17.5° З 4 15 20 км - переменная облачность 745 757 +1.4 49% +6.7° 600 м - - - -
06:00 +18.8° З 4 - 20 км - облачно с прояснениями 743 755 -0.4 71% +13.4° 600 м 0 Влажная (без луж) +17° -
03:00 +18.2° З,Ю-З 2 - 20 км - преимущественно облачно 744 755 -0.8 78% +14.4° 600 м - - - -
00:00 +17.4° штиль 0 - 20 км - преимущественно облачно 744 756 -0.3 76% +13.2° 600 м - - - -
Вторник, 19 Июня
Время местн. Темп Ветер Видим Явления Облачность нижн/средн/верх Атм. давл. Влжн Точка росы ВНГО R Сост. почвы Tg s
Напр Скр Прв ур.ст ур.м изм
21:00 +21.2° З 3 - 2 км - преимущественно облачно 746 758 -0.3 64% +14.2° 600 м - - - -
18:00 +24.1° Ю-З 2 - 20 км - преимущественно облачно 746 758 -0.5 53% +14° 600 м - - - -